createdAt,value
2019-01-04T00:00:40.907Z,9.50
2019-01-04T00:03:10.702Z,10.80
2019-01-04T00:05:40.586Z,10.07
2019-01-04T00:08:10.594Z,8.90
2019-01-04T00:10:40.174Z,9.50
2019-01-04T00:13:10.452Z,9.20
2019-01-04T00:15:40.176Z,8.90
2019-01-04T00:18:09.856Z,10.13
2019-01-04T00:20:39.639Z,9.47
2019-01-04T00:23:10.146Z,9.33
2019-01-04T00:25:40.001Z,10.23
2019-01-04T00:28:09.759Z,9.37
2019-01-04T00:30:39.470Z,10.23
2019-01-04T00:33:09.163Z,9.47
2019-01-04T00:35:39.338Z,9.97
2019-01-04T00:38:09.290Z,10.37
2019-01-04T00:40:39.231Z,11.43
2019-01-04T00:43:08.842Z,10.87
2019-01-04T00:45:38.613Z,10.57
2019-01-04T00:48:08.342Z,10.97
2019-01-04T00:50:38.046Z,11.97
2019-01-04T00:53:07.806Z,11.83
2019-01-04T00:55:50.763Z,13.30
2019-01-04T00:58:46.423Z,14.37
2019-01-04T01:01:51.978Z,15.40
2019-01-04T01:04:41.157Z,15.80
2019-01-04T01:07:45.572Z,17.33
2019-01-04T01:10:52.930Z,17.70
2019-01-04T01:13:42.343Z,20.93
2019-01-04T01:16:55.517Z,20.33
2019-01-04T01:19:48.802Z,19.73
2019-01-04T01:22:57.791Z,21.03
2019-01-04T01:25:40.785Z,21.17
2019-01-04T01:29:00.501Z,22.30
2019-01-04T01:32:00.469Z,22.60
2019-01-04T01:34:55.185Z,22.07
2019-01-04T01:37:53.516Z,26.03
2019-01-04T01:40:46.125Z,24.93
2019-01-04T01:44:02.841Z,24.40
2019-01-04T01:46:40.091Z,27.10
2019-01-04T01:49:31.417Z,25.27
2019-01-04T01:52:05.733Z,25.93
2019-01-04T01:54:35.392Z,26.00
2019-01-04T01:57:05.086Z,28.50
2019-01-04T01:59:34.907Z,26.40
2019-01-04T02:02:04.500Z,28.00
2019-01-04T02:04:34.079Z,30.70
2019-01-04T02:07:03.866Z,31.07
2019-01-04T02:09:33.441Z,28.30
2019-01-04T02:12:03.262Z,35.97
2019-01-04T02:14:33.009Z,30.77
2019-01-04T02:17:02.714Z,31.70
2019-01-04T02:19:32.498Z,28.67
2019-01-04T02:22:02.009Z,31.70
2019-01-04T02:24:31.901Z,30.93
2019-01-04T02:27:01.768Z,30.80
2019-01-04T02:29:31.669Z,23.00
2019-01-04T02:32:01.315Z,22.77
2019-01-04T02:34:31.492Z,24.27
2019-01-04T02:37:01.337Z,24.53
2019-01-04T02:39:31.153Z,28.17
2019-01-04T02:42:00.769Z,27.13
2019-01-04T02:44:30.917Z,28.30
2019-01-04T02:47:00.406Z,28.13
2019-01-04T02:49:30.346Z,30.23
2019-01-04T02:51:59.907Z,21.77
2019-01-04T02:54:30.340Z,27.07
2019-01-04T02:56:59.944Z,27.90
2019-01-04T02:59:29.558Z,28.00
2019-01-04T03:01:59.383Z,27.80
2019-01-04T03:04:29.081Z,28.33
2019-01-04T03:06:58.771Z,28.57
2019-01-04T03:09:28.467Z,26.57
2019-01-04T03:11:58.116Z,27.43
2019-01-04T03:14:27.761Z,26.87
2019-01-04T03:16:57.637Z,27.27
2019-01-04T03:19:27.279Z,26.20
2019-01-04T03:21:57.025Z,28.90
2019-01-04T03:24:26.576Z,27.83
2019-01-04T03:26:56.189Z,28.17
2019-01-04T03:29:25.890Z,26.40
2019-01-04T03:31:55.563Z,26.23
2019-01-04T03:34:25.044Z,25.60
2019-01-04T03:36:54.544Z,24.57
2019-01-04T03:39:24.044Z,25.77
2019-01-04T03:41:53.779Z,25.87
2019-01-04T03:44:23.339Z,25.70
2019-01-04T03:46:52.976Z,25.20
2019-01-04T03:49:22.689Z,24.77
2019-01-04T03:51:52.481Z,25.37
2019-01-04T03:54:21.968Z,25.20
2019-01-04T03:56:51.624Z,24.53
2019-01-04T03:59:21.285Z,26.90
2019-01-04T04:01:50.848Z,24.60
2019-01-04T04:04:20.643Z,27.23
2019-01-04T04:06:50.245Z,27.07
2019-01-04T04:09:20.206Z,25.73
2019-01-04T04:11:49.814Z,26.30
2019-01-04T04:14:19.445Z,26.10
2019-01-04T04:16:48.999Z,26.83
2019-01-04T04:19:18.611Z,25.10
2019-01-04T04:21:48.151Z,24.17
2019-01-04T04:24:17.752Z,26.73
2019-01-04T04:26:47.349Z,25.03
2019-01-04T04:29:17.081Z,25.97
2019-01-04T04:31:46.636Z,24.43
2019-01-04T04:34:16.254Z,24.97
2019-01-04T04:36:45.960Z,23.57
2019-01-04T04:39:15.616Z,24.63
2019-01-04T04:41:45.211Z,23.87
2019-01-04T04:44:14.960Z,25.23
2019-01-04T04:46:44.485Z,23.30
2019-01-04T04:49:14.106Z,25.00
2019-01-04T04:51:43.674Z,24.97
2019-01-04T04:54:13.345Z,24.30
2019-01-04T04:56:43.375Z,23.70
2019-01-04T04:59:13.160Z,24.90
2019-01-04T05:01:43.623Z,24.87
2019-01-04T05:04:13.236Z,25.37
2019-01-04T05:06:43.366Z,24.37
2019-01-04T05:09:13.155Z,25.03
2019-01-04T05:11:42.950Z,23.20
2019-01-04T05:14:12.603Z,24.60
2019-01-04T05:16:42.309Z,24.50
2019-01-04T05:19:11.818Z,25.13
2019-01-04T05:21:42.123Z,23.20
2019-01-04T05:24:11.780Z,26.30
2019-01-04T05:26:41.840Z,24.23
2019-01-04T05:29:11.438Z,25.50
2019-01-04T05:31:41.004Z,27.83
2019-01-04T05:34:10.716Z,27.47
2019-01-04T05:36:40.438Z,24.63
2019-01-04T05:39:09.981Z,25.30
2019-01-04T05:41:39.803Z,27.27
2019-01-04T05:44:09.379Z,25.87
2019-01-04T05:46:39.205Z,25.00
2019-01-04T05:49:08.893Z,23.00
2019-01-04T05:51:38.684Z,25.30
2019-01-04T05:54:08.442Z,20.47
2019-01-04T05:56:38.159Z,27.10
2019-01-04T05:59:07.798Z,26.37
2019-01-04T06:01:37.459Z,25.93
2019-01-04T06:04:07.397Z,26.97
2019-01-04T06:06:36.865Z,27.37
2019-01-04T06:09:08.472Z,28.73
2019-01-04T06:11:38.039Z,29.30
2019-01-04T06:14:07.743Z,31.50
2019-01-04T06:16:37.313Z,27.87
2019-01-04T06:19:06.919Z,28.60
2019-01-04T06:21:36.413Z,30.20
2019-01-04T06:24:06.107Z,30.23
2019-01-04T06:26:35.616Z,32.33
2019-01-04T06:29:05.208Z,33.37
2019-01-04T06:31:34.873Z,32.47
2019-01-04T06:34:04.502Z,32.83
2019-01-04T06:36:34.334Z,34.73
2019-01-04T06:39:05.765Z,34.80
2019-01-04T06:41:35.324Z,35.23
2019-01-04T06:44:05.264Z,35.53
2019-01-04T06:46:34.823Z,28.37
2019-01-04T06:49:04.429Z,29.80
2019-01-04T06:51:33.949Z,31.73
2019-01-04T06:54:03.533Z,33.13
2019-01-04T06:56:33.100Z,35.10
2019-01-04T06:59:02.660Z,36.07
2019-01-04T07:01:32.207Z,33.83
2019-01-04T07:04:01.930Z,32.33
2019-01-04T07:06:31.536Z,33.23
2019-01-04T07:09:01.084Z,32.67
2019-01-04T07:11:30.637Z,32.47
2019-01-04T07:14:00.453Z,33.10
2019-01-04T07:16:30.113Z,32.67
2019-01-04T07:19:00.003Z,32.27
2019-01-04T07:21:29.547Z,32.37
2019-01-04T07:23:59.291Z,32.10
2019-01-04T07:26:28.902Z,30.97
2019-01-04T07:28:58.387Z,31.90
2019-01-04T07:31:28.006Z,29.00
2019-01-04T07:33:57.628Z,30.60
2019-01-04T07:36:27.637Z,29.63
2019-01-04T07:38:57.578Z,29.10
2019-01-04T07:41:27.262Z,28.50
2019-01-04T07:43:56.933Z,28.07
2019-01-04T07:46:26.528Z,27.20
2019-01-04T07:48:56.498Z,29.27
2019-01-04T07:51:25.981Z,28.63
2019-01-04T07:53:56.219Z,26.93
2019-01-04T07:56:25.699Z,26.10
2019-01-04T07:58:55.864Z,22.13
2019-01-04T08:01:25.779Z,25.47
2019-01-04T08:03:55.776Z,25.53
2019-01-04T08:06:25.263Z,26.13
2019-01-04T08:08:55.623Z,23.87
2019-01-04T08:11:25.543Z,25.17
2019-01-04T08:13:55.511Z,23.47
2019-01-04T08:16:25.069Z,24.47
2019-01-04T08:18:55.823Z,22.97
2019-01-04T08:21:25.463Z,24.27
2019-01-04T08:23:56.297Z,19.83
2019-01-04T08:26:25.856Z,23.43
2019-01-04T08:28:56.127Z,22.63
2019-01-04T08:31:25.817Z,23.23
2019-01-04T08:33:55.533Z,21.87
2019-01-04T08:36:25.549Z,22.23
2019-01-04T08:38:55.148Z,23.33
2019-01-04T08:41:24.945Z,19.93
2019-01-04T08:43:54.623Z,18.87
2019-01-04T08:46:24.364Z,18.37
2019-01-04T08:48:54.293Z,18.93
2019-01-04T08:51:23.918Z,17.87
2019-01-04T08:53:59.149Z,17.77
2019-01-04T08:56:32.127Z,17.87
2019-01-04T08:59:01.967Z,19.33
2019-01-04T09:01:31.616Z,18.97
2019-01-04T09:04:01.693Z,18.50
2019-01-04T09:06:31.487Z,19.40
2019-01-04T09:09:01.417Z,19.33
2019-01-04T09:11:31.155Z,18.97
2019-01-04T09:14:01.347Z,17.27
2019-01-04T09:16:31.047Z,17.93
2019-01-04T09:19:01.104Z,17.80
2019-01-04T09:21:31.204Z,17.13
2019-01-04T09:24:01.489Z,18.53
2019-01-04T09:26:31.140Z,16.00
2019-01-04T09:29:01.429Z,16.53
2019-01-04T09:31:31.030Z,18.57
2019-01-04T09:34:01.071Z,16.47
2019-01-04T09:36:30.627Z,15.90
2019-01-04T09:39:03.316Z,14.57
2019-01-04T09:41:37.229Z,14.53
2019-01-04T09:44:06.956Z,13.73
2019-01-04T09:46:36.581Z,11.97
2019-01-04T09:49:06.563Z,10.70
2019-01-04T09:51:36.386Z,12.07
2019-01-04T09:54:06.352Z,11.40
2019-01-04T09:56:35.949Z,11.27
2019-01-04T09:59:06.018Z,10.90
2019-01-04T10:01:35.653Z,10.67
2019-01-04T10:04:05.871Z,10.57
2019-01-04T10:06:35.532Z,9.97
2019-01-04T10:09:07.456Z,9.57
2019-01-04T10:11:38.926Z,8.30
2019-01-04T10:14:08.851Z,7.77
2019-01-04T10:16:38.511Z,7.07
2019-01-04T10:19:08.589Z,6.17
2019-01-04T10:21:38.271Z,6.60
2019-01-04T10:24:08.138Z,6.50
2019-01-04T10:26:37.822Z,6.47
2019-01-04T10:29:08.023Z,6.60
2019-01-04T10:31:37.585Z,6.37
2019-01-04T10:34:07.260Z,6.60
2019-01-04T10:36:37.089Z,4.53
2019-01-04T10:39:08.465Z,5.53
2019-01-04T10:41:38.383Z,5.70
2019-01-04T10:44:08.522Z,4.00
2019-01-04T10:46:38.423Z,4.13
2019-01-04T10:49:08.096Z,4.50
2019-01-04T10:51:38.200Z,4.60
2019-01-04T10:54:08.606Z,3.80
2019-01-04T10:56:38.203Z,3.20
2019-01-04T10:59:08.625Z,4.20
2019-01-04T11:01:38.394Z,3.63
2019-01-04T11:04:08.131Z,3.60
2019-01-04T11:06:38.022Z,3.93
2019-01-04T11:09:09.791Z,3.80
2019-01-04T11:11:39.442Z,3.60
2019-01-04T11:14:09.641Z,3.50
2019-01-04T11:16:39.455Z,3.50
2019-01-04T11:19:09.465Z,3.00
2019-01-04T11:21:39.138Z,3.47
2019-01-04T11:24:21.515Z,3.70
2019-01-04T11:26:53.215Z,3.20
2019-01-04T11:29:45.190Z,3.90
2019-01-04T11:32:34.088Z,3.80
2019-01-04T11:35:32.025Z,3.50
2019-01-04T11:38:15.017Z,3.43
2019-01-04T11:40:58.282Z,4.00
2019-01-04T11:44:06.197Z,3.73
2019-01-04T11:46:55.340Z,4.07
2019-01-04T11:49:47.498Z,4.40
2019-01-04T11:52:24.514Z,4.17
2019-01-04T11:54:55.783Z,4.70
2019-01-04T11:57:25.449Z,5.10
2019-01-04T11:59:55.146Z,3.50
2019-01-04T12:02:26.414Z,4.13
2019-01-04T12:04:57.805Z,3.30
2019-01-04T12:07:27.566Z,3.57
2019-01-04T12:09:57.188Z,4.23
2019-01-04T12:12:27.176Z,5.60
2019-01-04T12:14:56.782Z,8.50
2019-01-04T12:17:29.638Z,5.17
2019-01-04T12:19:59.261Z,6.03
2019-01-04T12:22:30.053Z,5.23
2019-01-04T12:25:00.050Z,3.80
2019-01-04T12:27:29.587Z,4.83
2019-01-04T12:29:59.192Z,5.17
2019-01-04T12:32:28.957Z,4.93
2019-01-04T12:34:58.794Z,5.83
2019-01-04T12:37:28.557Z,5.30
2019-01-04T12:39:58.367Z,4.83
2019-01-04T12:42:27.960Z,6.00
2019-01-04T12:44:57.987Z,5.30
2019-01-04T12:47:28.058Z,6.03
2019-01-04T12:49:58.080Z,6.40
2019-01-04T12:52:27.821Z,5.53
2019-01-04T12:54:57.861Z,4.80
2019-01-04T12:57:27.622Z,6.87
2019-01-04T12:59:57.259Z,6.47
2019-01-04T13:02:27.024Z,7.20
2019-01-04T13:04:56.676Z,7.43
2019-01-04T13:07:26.469Z,7.67
2019-01-04T13:09:56.217Z,7.80
2019-01-04T13:12:25.862Z,6.70
2019-01-04T13:14:55.526Z,10.23
2019-01-04T13:17:25.329Z,8.20
2019-01-04T13:19:54.950Z,8.07
2019-01-04T13:22:24.884Z,7.77
2019-01-04T13:24:54.392Z,6.17
2019-01-04T13:27:24.158Z,7.83
2019-01-04T13:29:53.740Z,7.67
2019-01-04T13:32:23.721Z,6.63
2019-01-04T13:34:53.431Z,7.90
2019-01-04T13:37:23.427Z,8.70
2019-01-04T13:39:53.162Z,8.17
2019-01-04T13:42:22.964Z,9.87
2019-01-04T13:44:52.596Z,9.97
2019-01-04T13:47:22.474Z,7.23
2019-01-04T13:49:52.160Z,8.30
2019-01-04T13:52:22.117Z,8.90
2019-01-04T13:54:51.791Z,9.10
2019-01-04T13:57:21.916Z,8.27
2019-01-04T13:59:51.431Z,7.27
2019-01-04T14:02:21.621Z,8.57
2019-01-04T14:04:51.657Z,9.43
2019-01-04T14:07:21.501Z,9.10
2019-01-04T14:09:51.256Z,9.37
2019-01-04T14:12:20.880Z,9.53
2019-01-04T14:14:50.427Z,9.37
2019-01-04T14:17:20.341Z,10.57
2019-01-04T14:19:49.946Z,8.73
2019-01-04T14:22:19.668Z,8.37
2019-01-04T14:24:49.326Z,8.50
2019-01-04T14:27:19.085Z,9.80
2019-01-04T14:29:48.760Z,9.27
2019-01-04T14:32:18.630Z,8.57
2019-01-04T14:34:48.740Z,8.90
2019-01-04T14:37:18.599Z,10.17
2019-01-04T14:39:58.950Z,9.77
2019-01-04T14:42:28.599Z,9.90
2019-01-04T14:44:58.290Z,6.30
2019-01-04T14:47:28.184Z,8.40
2019-01-04T14:49:58.006Z,9.70
2019-01-04T14:52:28.299Z,9.10
2019-01-04T14:54:58.001Z,9.67
2019-01-04T14:57:27.985Z,9.87
2019-01-04T14:59:57.957Z,8.67
2019-01-04T15:02:28.129Z,9.07
2019-01-04T15:04:57.925Z,7.63
2019-01-04T15:07:28.246Z,8.70
2019-01-04T15:09:57.883Z,9.47
2019-01-04T15:12:28.145Z,8.47
2019-01-04T15:14:57.773Z,9.67
2019-01-04T15:17:28.465Z,9.47
2019-01-04T15:19:58.408Z,9.30
2019-01-04T15:22:28.472Z,8.67
2019-01-04T15:24:58.223Z,8.37
2019-01-04T15:27:28.750Z,8.63
2019-01-04T15:29:58.340Z,9.13
2019-01-04T15:32:28.315Z,8.63
2019-01-04T15:34:58.000Z,9.87
2019-01-04T15:37:27.937Z,10.97
2019-01-04T15:39:57.692Z,10.13
2019-01-04T15:42:27.426Z,9.20
2019-01-04T15:44:56.919Z,9.93
2019-01-04T15:47:26.797Z,9.67
2019-01-04T15:49:56.546Z,11.37
2019-01-04T15:52:26.810Z,12.10
2019-01-04T15:54:56.394Z,11.90
2019-01-04T15:57:26.264Z,9.53
2019-01-04T15:59:55.872Z,11.00
2019-01-04T16:02:25.808Z,11.47
2019-01-04T16:04:55.486Z,12.03
2019-01-04T16:07:25.434Z,12.20
2019-01-04T16:09:55.224Z,11.30
2019-01-04T16:12:24.944Z,13.07
2019-01-04T16:14:54.743Z,12.00
2019-01-04T16:17:24.338Z,11.80
2019-01-04T16:19:53.933Z,12.47
2019-01-04T16:22:23.763Z,12.93
2019-01-04T16:24:53.353Z,12.93
2019-01-04T16:27:23.121Z,13.13
2019-01-04T16:29:52.932Z,12.80
2019-01-04T16:32:22.427Z,12.70
2019-01-04T16:34:52.413Z,13.40
2019-01-04T16:37:21.909Z,13.57
2019-01-04T16:39:51.728Z,12.13
2019-01-04T16:42:21.480Z,12.93
2019-01-04T16:44:51.188Z,11.67
2019-01-04T16:47:20.843Z,14.00
2019-01-04T16:49:50.509Z,14.87
2019-01-04T16:52:20.245Z,12.17
2019-01-04T16:54:50.035Z,14.13
2019-01-04T16:57:19.561Z,13.50
2019-01-04T16:59:49.435Z,13.70
2019-01-04T17:02:19.056Z,17.30
2019-01-04T17:04:48.914Z,18.43
2019-01-04T17:07:18.415Z,14.00
2019-01-04T17:09:48.218Z,14.23
2019-01-04T17:12:17.938Z,15.07
2019-01-04T17:14:47.918Z,15.67
2019-01-04T17:17:17.809Z,13.03
2019-01-04T17:19:47.628Z,14.70
2019-01-04T17:22:17.263Z,14.83
2019-01-04T17:24:46.890Z,14.50
2019-01-04T17:27:16.574Z,14.27
2019-01-04T17:29:46.166Z,14.73
2019-01-04T17:32:15.702Z,13.73
2019-01-04T17:34:45.310Z,16.53
2019-01-04T17:37:15.094Z,16.83
2019-01-04T17:39:44.673Z,17.00
2019-01-04T17:42:14.400Z,17.70
2019-01-04T17:44:44.022Z,20.57
2019-01-04T17:47:13.784Z,17.40
2019-01-04T17:49:43.618Z,20.03
2019-01-04T17:52:13.334Z,17.67
2019-01-04T17:54:43.378Z,17.40
2019-01-04T17:57:13.272Z,19.93
2019-01-04T17:59:43.270Z,19.10
2019-01-04T18:02:13.030Z,17.50
2019-01-04T18:04:42.748Z,19.20
2019-01-04T18:07:13.051Z,16.77
2019-01-04T18:09:43.254Z,16.87
2019-01-04T18:12:12.934Z,17.17
2019-01-04T18:14:42.598Z,16.00
2019-01-04T18:17:12.192Z,15.47
2019-01-04T18:19:42.000Z,15.60
2019-01-04T18:22:11.947Z,17.67
2019-01-04T18:24:41.527Z,18.63
2019-01-04T18:27:11.314Z,21.87
2019-01-04T18:29:41.053Z,15.63
2019-01-04T18:32:10.662Z,18.13
2019-01-04T18:34:40.729Z,19.73
2019-01-04T18:37:10.561Z,20.77
2019-01-04T18:39:40.145Z,14.30
2019-01-04T18:42:09.983Z,14.40
2019-01-04T18:44:39.594Z,15.60
2019-01-04T18:47:09.289Z,16.90
2019-01-04T18:49:38.962Z,18.67
2019-01-04T18:52:09.177Z,14.97
2019-01-04T18:54:39.367Z,17.63
2019-01-04T18:57:09.154Z,15.83
2019-01-04T18:59:38.904Z,16.40
2019-01-04T19:02:08.577Z,16.37
2019-01-04T19:04:39.169Z,16.40
2019-01-04T19:07:08.978Z,16.60
2019-01-04T19:09:38.978Z,17.17
2019-01-04T19:12:08.593Z,16.27
2019-01-04T19:14:39.565Z,14.33
2019-01-04T19:17:09.237Z,15.03
2019-01-04T19:19:38.909Z,17.13
2019-01-04T19:22:08.846Z,14.87
2019-01-04T19:24:38.767Z,15.27
2019-01-04T19:27:08.713Z,22.07
2019-01-04T19:29:38.430Z,17.40
2019-01-04T19:32:08.109Z,15.00
2019-01-04T19:34:37.744Z,14.93
2019-01-04T19:37:07.442Z,13.83
2019-01-04T19:39:37.144Z,13.43
2019-01-04T19:42:07.218Z,15.03
2019-01-04T19:44:36.786Z,16.00
2019-01-04T19:47:06.398Z,14.60
2019-01-04T19:49:36.033Z,14.90
2019-01-04T19:52:05.843Z,13.40
2019-01-04T19:54:35.533Z,13.67
2019-01-04T19:57:05.470Z,13.50
2019-01-04T19:59:34.968Z,13.50
2019-01-04T20:02:04.753Z,15.17
2019-01-04T20:04:34.423Z,17.27
2019-01-04T20:07:22.457Z,14.30
2019-01-04T20:10:46.622Z,17.37
2019-01-04T20:13:53.532Z,14.93
2019-01-04T20:16:32.967Z,15.60
2019-01-04T20:19:04.999Z,14.30
2019-01-04T20:21:36.414Z,13.13
2019-01-04T20:24:23.745Z,14.37
2019-01-04T20:26:57.747Z,12.27
2019-01-04T20:29:44.892Z,13.60
2019-01-04T20:32:32.169Z,10.03
2019-01-04T20:35:15.254Z,12.67
2019-01-04T20:38:01.870Z,12.70
2019-01-04T20:40:49.709Z,12.27
2019-01-04T20:43:27.275Z,13.17
2019-01-04T20:46:13.753Z,11.87
2019-01-04T20:49:01.426Z,10.00
2019-01-04T20:51:32.562Z,10.63
2019-01-04T20:54:03.739Z,12.83
2019-01-04T20:56:47.377Z,13.43
2019-01-04T20:59:35.133Z,10.30
2019-01-04T21:02:16.056Z,10.20
2019-01-04T21:05:03.573Z,9.30
2019-01-04T21:07:43.129Z,9.90
2019-01-04T21:10:31.306Z,14.23
2019-01-04T21:13:18.310Z,11.40
2019-01-04T21:16:04.908Z,9.83
2019-01-04T21:18:52.786Z,9.93
2019-01-04T21:21:24.197Z,8.43
2019-01-04T21:24:01.925Z,9.90
2019-01-04T21:26:39.212Z,10.77
2019-01-04T21:29:26.481Z,11.57
2019-01-04T21:32:03.197Z,10.77
2019-01-04T21:34:40.625Z,11.67
2019-01-04T21:37:14.637Z,10.97
2019-01-04T21:39:53.162Z,11.57
2019-01-04T21:42:40.662Z,11.23
2019-01-04T21:45:23.753Z,10.73
2019-01-04T21:47:53.136Z,12.30
2019-01-04T21:50:39.812Z,12.37
2019-01-04T21:53:11.070Z,10.83
2019-01-04T21:55:52.880Z,10.90
2019-01-04T21:58:40.696Z,12.10
2019-01-04T22:01:21.298Z,10.57
2019-01-04T22:04:08.696Z,9.60
2019-01-04T22:06:40.141Z,9.37
2019-01-04T22:09:11.748Z,9.77
2019-01-04T22:11:55.201Z,9.77
2019-01-04T22:14:41.691Z,9.57
2019-01-04T22:17:27.836Z,10.90
2019-01-04T22:20:15.179Z,10.83
2019-01-04T22:23:02.407Z,8.83
2019-01-04T22:25:50.106Z,9.67
2019-01-04T22:28:21.335Z,8.73
2019-01-04T22:30:58.670Z,10.33
2019-01-04T22:33:41.731Z,10.40
2019-01-04T22:36:13.282Z,8.73
2019-01-04T22:38:44.609Z,9.80
2019-01-04T22:41:21.447Z,8.83
2019-01-04T22:43:57.145Z,8.93
2019-01-04T22:46:34.445Z,8.43
2019-01-04T22:49:06.502Z,9.93
2019-01-04T22:51:53.885Z,10.30
2019-01-04T22:54:41.572Z,10.23
2019-01-04T22:57:29.188Z,9.20
2019-01-04T23:00:00.504Z,9.43
2019-01-04T23:02:43.772Z,10.23
2019-01-04T23:05:31.752Z,9.93
2019-01-04T23:08:15.456Z,9.87
2019-01-04T23:11:03.414Z,8.87
2019-01-04T23:13:40.980Z,9.57
2019-01-04T23:16:29.165Z,8.07
2019-01-04T23:19:00.458Z,9.77
2019-01-04T23:22:08.527Z,9.23
2019-01-04T23:24:44.257Z,7.90
2019-01-04T23:27:15.716Z,9.23
2019-01-04T23:29:59.014Z,8.47
2019-01-04T23:32:30.327Z,8.37
2019-01-04T23:35:02.924Z,8.80
2019-01-04T23:37:50.220Z,8.17
2019-01-04T23:40:40.001Z,8.63
2019-01-04T23:43:20.498Z,8.00
2019-01-04T23:46:08.402Z,6.83
2019-01-04T23:48:42.350Z,7.80
2019-01-04T23:51:22.934Z,7.87
2019-01-04T23:54:00.475Z,7.27
2019-01-04T23:56:47.861Z,7.33
2019-01-04T23:59:35.294Z,7.87
